Terminal Aerodrome Forecast
Issued by NWS Sioux Falls, SD

Home | Current Version | Previous Version | Text Only | Print | Product List | Glossary Off
Versions: 1 2 3 4 5 6 7 8 9 10 11 12 13 14 15 16 17 18 19 20 21 22 23 24 25 26 27 28 29 30 31

000
FTUS43 KFSD 251730
TAFSUX
TAF
KSUX 251730Z 2518/2618 35011KT P6SM OVC012
     FM260000 VRB04KT P6SM BKN025
     FM260200 VRB03KT P6SM SCT025 BKN150
     FM260600 18009KT P6SM SCT150
     FM261100 26010KT P6SM SKC
     FM261400 31015G22KT P6SM SKC=

USA.gov is the U.S. government's official web portal to all federal, state and local government web resources and services.